Etusivu
METAR-TAF:

METAR-TAF

Lentoasemat :

Rochelle Municipal Airport (Koritz Field)

Rochelle, Illinois, Yhdysvallat

Leveyspiiri: 41-53-35N, Pituuspiiri: 089-04-42W, korkeus merenpinnasta: 238 m

Tämänhetkinen sää

Tämä raportti tehtiin 28 minuuttia sitten, kello 16.30 UTC
Tuuli 3 kn lännestä/luoteesta
Lämpötila 1°C
Kosteus 100%
Ilmanpaine 1010 hPa
Näkyvyys: 6.4 km
Hajanaisia pilviä 500 ft:n korkeudessa
Pilvistä 1200 ft:n korkeudessa
utua

METAR: KRPJ 181630Z AUTO 29003KT 4SM BR SCT005 OVC012 01/01 A2982 RMK AO2 T00120010

Aika: 10:58 (16:58 UTC)


TAF: puuttuu

Säähavainnot ja -ennusteet yli 4000 lentoasemalta (METAR- ja TAF-raportit).

Käytössä olevat sääasemat on merkitty karttaan keltaisilla ja punaisilla pisteillä.

Aseta hiiri pisteen päälle nähdäksesi sääaseman nimen.

Klikkaa sitten nähdäksesi säähavainnot ja -ennusteet.

Kartan vaihtaminen: klikkaa mustalla rastilla varustettuja vihreitä pisteitä, niin voit zoomata sisään; viivalla varustettua vihreää pistettä, niin voit zoomata ulos tai vihreitä nuolia, niin pääset viereisille kartoille.


METAR-TAF: